Time;durP1;ratioP1;P1;durP2;ratioP2;P2;SDS_P1;SDS_P2;PMS_P1;PMS_P2;Temp;Humidity;BMP_temperature;BMP_pressure;BME280_temperature;BME280_humidity;BME280_pressure;Samples;Min_cycle;Max_cycle;Signal;HPM_P1;HPM_P2
2022/07/02 00:00:14;;;;;;;4.50;3.15;;;24.30;96.70;;;;;;4876635;29;20444;-81
2022/07/02 00:02:43;;;;;;;9.60;4.03;;;24.30;96.70;;;;;;4870196;29;20081;-81
2022/07/02 00:05:14;;;;;;;8.02;3.40;;;24.40;96.70;;;;;;4856555;29;20496;-82
2022/07/02 00:07:44;;;;;;;5.57;3.70;;;24.30;96.70;;;;;;4865397;29;20053;-82
2022/07/02 00:10:12;;;;;;;4.45;2.47;;;24.30;96.70;;;;;;4887565;29;20044;-81
2022/07/02 00:12:41;;;;;;;4.35;2.65;;;24.30;96.70;;;;;;4871025;29;20060;-82
2022/07/02 00:15:10;;;;;;;3.95;2.30;;;24.30;96.70;;;;;;4856547;29;20045;-82
2022/07/02 00:17:39;;;;;;;4.47;2.50;;;24.30;96.70;;;;;;4871069;29;20061;-81
2022/07/02 00:20:08;;;;;;;3.95;2.58;;;24.20;96.70;;;;;;4873212;29;20476;-81
2022/07/02 00:22:37;;;;;;;4.50;2.42;;;24.20;96.70;;;;;;4855302;29;20604;-81
2022/07/02 00:25:07;;;;;;;4.82;2.70;;;24.20;96.70;;;;;;4871248;29;20051;-81
2022/07/02 00:27:39;;;;;;;3.38;2.40;;;24.10;96.70;;;;;;4870775;29;20106;-82
2022/07/02 00:30:09;;;;;;;4.88;2.20;;;24.10;96.70;;;;;;4872563;29;20076;-81
2022/07/02 00:32:37;;;;;;;2.80;2.20;;;24.10;96.70;;;;;;4888951;29;20502;-82
2022/07/02 00:35:13;;;;;;;3.70;2.40;;;24.00;96.70;;;;;;4871193;29;20037;-82
2022/07/02 00:37:41;;;;;;;5.85;2.75;;;23.90;96.70;;;;;;4870687;29;20065;-80
2022/07/02 00:40:11;;;;;;;6.10;2.72;;;23.80;96.70;;;;;;4871796;29;20047;-82
2022/07/02 00:42:39;;;;;;;5.55;2.53;;;23.70;96.70;;;;;;4870926;29;20472;-81
2022/07/02 00:45:09;;;;;;;6.47;2.78;;;23.70;96.70;;;;;;4870569;29;20085;-81
2022/07/02 00:47:39;;;;;;;5.40;2.88;;;23.70;96.70;;;;;;4876214;29;20061;-82
2022/07/02 00:50:08;;;;;;;3.80;2.33;;;23.60;96.70;;;;;;4870725;29;20072;-82
2022/07/02 00:52:36;;;;;;;5.43;2.47;;;23.60;96.70;;;;;;4871267;29;20053;-82
2022/07/02 00:55:05;;;;;;;6.25;2.80;;;23.60;96.70;;;;;;4870303;29;20076;-82
2022/07/02 00:57:35;;;;;;;5.25;3.10;;;23.60;96.70;;;;;;4886385;29;20125;-82
2022/07/02 01:00:06;;;;;;;4.35;3.20;;;23.60;96.70;;;;;;4872147;29;20539;-82
2022/07/02 01:02:37;;;;;;;4.68;2.70;;;23.60;96.70;;;;;;4880648;29;20057;-81
2022/07/02 01:05:07;;;;;;;5.63;2.22;;;23.60;96.70;;;;;;4875475;29;20504;-81
2022/07/02 01:07:36;;;;;;;4.85;2.20;;;23.60;96.70;;;;;;4855924;29;20064;-82
2022/07/02 01:10:18;;;;;;;5.00;2.47;;;23.60;96.70;;;;;;4870783;29;20037;-82
2022/07/02 01:12:49;;;;;;;3.33;1.90;;;23.60;96.70;;;;;;4883619;29;20053;-82
2022/07/02 01:15:17;;;;;;;3.88;2.10;;;23.60;96.70;;;;;;4870579;29;20065;-82
2022/07/02 01:17:45;;;;;;;3.47;1.90;;;23.50;96.70;;;;;;4871957;29;20101;-82
2022/07/02 01:20:13;;;;;;;5.30;2.17;;;23.50;96.70;;;;;;4872352;29;20052;-82
2022/07/02 01:22:44;;;;;;;4.53;2.08;;;23.50;96.70;;;;;;4855316;29;20060;-81
2022/07/02 01:25:12;;;;;;;3.20;2.08;;;23.50;96.70;;;;;;4869328;29;20580;-82
2022/07/02 01:27:40;;;;;;;3.80;1.60;;;23.50;96.70;;;;;;4870808;29;20527;-82
2022/07/02 01:30:09;;;;;;;5.07;2.00;;;23.40;96.70;;;;;;4867041;29;20485;-82
2022/07/02 01:32:37;;;;;;;5.32;2.10;;;23.40;96.70;;;;;;4866159;29;20057;-82
2022/07/02 01:35:08;;;;;;;4.70;2.15;;;23.40;96.70;;;;;;4869886;29;20049;-82
2022/07/02 01:37:38;;;;;;;8.40;2.10;;;23.40;96.70;;;;;;4871077;29;20053;-82
2022/07/02 01:40:09;;;;;;;3.38;1.80;;;23.30;96.70;;;;;;4874733;29;20053;-82
2022/07/02 01:42:38;;;;;;;2.28;1.90;;;23.30;96.70;;;;;;4872707;29;20049;-82
2022/07/02 01:45:06;;;;;;;2.75;1.90;;;23.30;96.70;;;;;;4873739;29;20056;-82
2022/07/02 01:47:34;;;;;;;4.88;2.50;;;23.20;96.70;;;;;;4870559;29;20053;-82
2022/07/02 01:50:03;;;;;;;3.83;2.25;;;23.20;96.70;;;;;;4871675;29;20113;-82
2022/07/02 01:52:31;;;;;;;4.95;2.45;;;23.10;96.70;;;;;;4855855;29;20049;-82
2022/07/02 01:54:59;;;;;;;12.73;3.30;;;23.00;96.70;;;;;;4866782;29;20049;-82
2022/07/02 01:57:30;;;;;;;4.50;2.20;;;23.00;96.70;;;;;;4872450;29;20053;-82
2022/07/02 01:59:58;;;;;;;12.13;2.70;;;23.00;96.70;;;;;;4876132;29;20045;-82
2022/07/02 02:02:26;;;;;;;5.07;2.33;;;23.00;96.70;;;;;;4873913;29;20049;-82
2022/07/02 02:04:54;;;;;;;3.72;1.88;;;23.00;96.70;;;;;;4875128;29;20053;-79
2022/07/02 02:07:22;;;;;;;4.57;2.00;;;22.90;96.70;;;;;;4873349;29;20143;-79
2022/07/02 02:09:50;;;;;;;4.43;2.13;;;22.90;96.70;;;;;;4874279;29;20496;-80
2022/07/02 02:12:18;;;;;;;2.33;1.73;;;22.80;96.70;;;;;;4893111;29;20491;-80
2022/07/02 02:14:47;;;;;;;3.38;1.90;;;22.80;96.70;;;;;;4858557;29;20141;-79
2022/07/02 02:17:15;;;;;;;4.10;1.90;;;22.80;96.70;;;;;;4865261;29;20097;-79
2022/07/02 02:19:43;;;;;;;4.72;2.15;;;22.80;96.70;;;;;;4875041;29;20052;-81
2022/07/02 02:22:11;;;;;;;3.97;2.40;;;23.00;96.70;;;;;;4878739;29;20097;-82
2022/07/02 02:24:39;;;;;;;4.30;2.78;;;23.30;96.70;;;;;;4874448;29;20052;-80
2022/07/02 02:27:08;;;;;;;6.22;3.72;;;23.50;96.70;;;;;;4889739;29;20059;-81
2022/07/02 02:29:37;;;;;;;3.83;2.88;;;23.50;96.70;;;;;;4874997;29;20052;-81
2022/07/02 02:32:08;;;;;;;4.30;3.40;;;23.40;96.70;;;;;;4874462;29;20045;-81
2022/07/02 02:34:36;;;;;;;4.63;2.95;;;23.40;96.70;;;;;;4873977;29;20049;-82
2022/07/02 02:37:05;;;;;;;5.20;2.97;;;23.40;96.70;;;;;;4874650;29;20559;-81
2022/07/02 02:39:33;;;;;;;5.75;3.80;;;23.50;96.70;;;;;;4873800;29;20113;-81
2022/07/02 02:42:01;;;;;;;4.38;2.60;;;23.70;96.70;;;;;;4873872;29;20048;-81
2022/07/02 02:44:29;;;;;;;7.15;3.30;;;23.80;96.70;;;;;;4866199;29;20053;-81
2022/07/02 02:46:57;;;;;;;4.95;3.05;;;23.80;96.70;;;;;;4875648;29;20059;-81
2022/07/02 02:49:27;;;;;;;5.97;2.75;;;23.60;96.70;;;;;;4874728;29;20507;-81
2022/07/02 02:51:55;;;;;;;4.57;2.65;;;23.80;96.70;;;;;;4860389;29;20045;-82
2022/07/02 02:54:23;;;;;;;5.68;2.67;;;23.60;96.70;;;;;;4859328;29;20059;-82
2022/07/02 02:56:51;;;;;;;5.75;2.70;;;23.60;96.70;;;;;;4872284;29;20115;-82
2022/07/02 02:59:19;;;;;;;6.63;2.85;;;23.80;96.70;;;;;;4858846;29;20056;-82
2022/07/02 03:01:47;;;;;;;6.30;2.55;;;23.70;96.70;;;;;;4874655;29;20049;-82
2022/07/02 03:04:15;;;;;;;5.15;2.35;;;23.60;96.70;;;;;;4873035;29;20143;-82
2022/07/02 03:06:45;;;;;;;2.47;1.60;;;23.40;96.70;;;;;;4875749;29;20041;-82
2022/07/02 03:09:13;;;;;;;2.88;1.73;;;23.30;96.70;;;;;;4873837;29;20508;-82
2022/07/02 03:11:40;;;;;;;4.38;1.52;;;23.30;96.70;;;;;;4874312;29;20492;-83
2022/07/02 03:14:08;;;;;;;2.58;1.88;;;23.50;96.70;;;;;;4873681;29;20072;-83
2022/07/02 03:16:36;;;;;;;3.03;1.67;;;23.40;96.70;;;;;;4858973;29;20041;-82
2022/07/02 03:19:04;;;;;;;2.40;1.83;;;23.30;96.70;;;;;;4874508;29;20140;-82
2022/07/02 03:21:33;;;;;;;3.22;1.45;;;23.30;96.70;;;;;;4875127;29;20563;-84
2022/07/02 03:24:03;;;;;;;2.75;1.85;;;23.30;96.70;;;;;;4874766;29;20051;-84
2022/07/02 03:26:31;;;;;;;4.07;1.98;;;23.30;96.70;;;;;;4874226;29;20492;-83
2022/07/02 03:28:58;;;;;;;3.55;1.60;;;23.30;96.70;;;;;;4858327;29;20049;-82
2022/07/02 03:31:26;;;;;;;4.88;2.20;;;23.30;96.70;;;;;;4878672;29;20045;-82
2022/07/02 03:33:54;;;;;;;3.58;1.80;;;23.30;96.70;;;;;;4873972;29;20083;-83
2022/07/02 03:36:22;;;;;;;4.20;1.73;;;23.20;96.70;;;;;;4888912;29;20500;-83
2022/07/02 03:38:50;;;;;;;3.30;2.00;;;23.10;96.70;;;;;;4864665;29;20081;-83
2022/07/02 03:41:20;;;;;;;2.72;1.90;;;23.20;96.70;;;;;;4875256;29;20052;-83
2022/07/02 03:43:50;;;;;;;3.40;1.98;;;23.20;96.70;;;;;;4874625;29;20049;-82
2022/07/02 03:46:18;;;;;;;4.45;1.95;;;23.20;96.70;;;;;;4874645;29;20071;-82
2022/07/02 03:48:46;;;;;;;3.78;2.20;;;23.00;96.70;;;;;;4858021;29;20059;-83
2022/07/02 03:51:15;;;;;;;6.97;2.35;;;23.00;96.70;;;;;;4873745;29;20101;-83
2022/07/02 03:53:43;;;;;;;5.72;2.47;;;23.00;96.70;;;;;;4873420;29;20052;-83
2022/07/02 03:56:11;;;;;;;6.90;3.03;;;22.90;96.70;;;;;;4873585;29;20045;-83
2022/07/02 03:58:41;;;;;;;4.88;2.58;;;23.00;96.70;;;;;;4873537;29;20037;-83
2022/07/02 04:01:09;;;;;;;4.25;2.30;;;23.00;96.70;;;;;;4871604;29;20147;-81
2022/07/02 04:03:37;;;;;;;3.10;2.17;;;23.00;96.70;;;;;;4875804;29;20052;-83
2022/07/02 04:06:06;;;;;;;7.00;2.45;;;23.00;96.70;;;;;;4881193;29;20056;-82
2022/07/02 04:08:34;;;;;;;4.10;2.42;;;23.00;96.70;;;;;;4870894;29;20053;-81
2022/07/02 04:11:02;;;;;;;2.60;2.03;;;23.00;96.70;;;;;;4868550;29;20053;-82
2022/07/02 04:13:30;;;;;;;5.20;2.40;;;23.00;96.70;;;;;;4872904;29;20049;-82
2022/07/02 04:16:01;;;;;;;5.50;2.50;;;23.00;96.70;;;;;;4873724;29;20156;-83
2022/07/02 04:18:29;;;;;;;6.05;2.33;;;23.00;96.70;;;;;;4873037;29;20060;-82
2022/07/02 04:20:57;;;;;;;8.40;2.35;;;23.10;96.70;;;;;;4872155;29;20045;-82
2022/07/02 04:23:25;;;;;;;4.32;2.08;;;23.00;96.70;;;;;;4888086;29;20049;-81
2022/07/02 04:25:53;;;;;;;6.13;2.05;;;23.00;96.70;;;;;;4857253;29;20699;-82
2022/07/02 04:28:21;;;;;;;4.22;2.00;;;23.10;96.70;;;;;;4857996;29;20057;-82
2022/07/02 04:30:49;;;;;;;4.07;1.75;;;22.90;96.70;;;;;;4872455;29;20100;-81
2022/07/02 04:33:19;;;;;;;4.28;1.80;;;22.90;96.70;;;;;;4872937;29;20438;-82
2022/07/02 04:35:47;;;;;;;4.95;2.22;;;23.00;96.70;;;;;;4888603;29;20045;-82
2022/07/02 04:38:16;;;;;;;5.95;1.95;;;23.00;96.70;;;;;;4872486;29;20056;-82
2022/07/02 04:40:45;;;;;;;5.45;2.30;;;23.00;96.70;;;;;;4855940;29;20105;-81
2022/07/02 04:43:14;;;;;;;5.05;1.85;;;23.00;96.70;;;;;;4857159;29;20492;-82
2022/07/02 04:45:42;;;;;;;3.33;2.00;;;22.90;96.70;;;;;;4872841;29;20849;-82
2022/07/02 04:48:10;;;;;;;6.00;2.40;;;22.80;96.70;;;;;;4872444;29;20180;-82
2022/07/02 04:50:40;;;;;;;5.53;2.25;;;22.70;96.70;;;;;;4887493;29;20562;-82
2022/07/02 04:53:08;;;;;;;5.00;2.35;;;22.70;96.70;;;;;;4868235;29;20061;-82
2022/07/02 04:55:36;;;;;;;7.63;2.40;;;22.80;96.70;;;;;;4870939;29;20049;-82
2022/07/02 04:58:05;;;;;;;6.70;2.65;;;22.90;96.70;;;;;;4871580;29;20156;-82
2022/07/02 05:00:33;;;;;;;4.85;2.38;;;22.80;96.70;;;;;;4871536;29;20559;-83
2022/07/02 05:03:01;;;;;;;7.95;2.63;;;22.70;96.70;;;;;;4875027;29;20127;-83
2022/07/02 05:05:29;;;;;;;5.55;2.40;;;22.70;96.70;;;;;;4888974;29;20381;-83
2022/07/02 05:07:58;;;;;;;3.33;2.33;;;22.70;96.70;;;;;;4872120;29;20411;-83
2022/07/02 05:10:27;;;;;;;3.67;2.50;;;22.80;96.70;;;;;;4872903;29;20057;-82
2022/07/02 05:12:55;;;;;;;6.60;2.58;;;23.00;96.70;;;;;;4872031;29;20183;-82
2022/07/02 05:15:23;;;;;;;5.18;2.42;;;23.00;96.70;;;;;;4857281;29;20076;-82
2022/07/02 05:17:51;;;;;;;5.35;2.58;;;23.10;96.70;;;;;;4872944;29;20118;-82
2022/07/02 05:20:20;;;;;;;4.20;2.60;;;23.10;96.70;;;;;;4872874;29;20147;-83
2022/07/02 05:22:48;;;;;;;2.83;2.55;;;23.00;96.70;;;;;;4871960;29;20063;-83
2022/07/02 05:25:18;;;;;;;6.78;2.90;;;23.00;96.70;;;;;;4871938;29;20072;-82
2022/07/02 05:27:46;;;;;;;3.67;2.50;;;23.20;96.70;;;;;;4864914;29;20101;-83
2022/07/02 05:30:14;;;;;;;5.97;3.15;;;23.10;96.70;;;;;;4873843;29;20049;-82
2022/07/02 05:32:42;;;;;;;4.30;3.00;;;23.20;96.70;;;;;;4868752;29;20046;-81
2022/07/02 05:35:10;;;;;;;5.18;3.20;;;23.40;96.70;;;;;;4869458;29;20164;-80
2022/07/02 05:37:39;;;;;;;6.78;3.67;;;23.50;96.70;;;;;;4889011;29;20144;-80
2022/07/02 05:40:08;;;;;;;6.75;3.63;;;23.50;96.70;;;;;;4871593;29;20470;-80
2022/07/02 05:42:37;;;;;;;6.97;3.63;;;23.50;96.70;;;;;;4872638;29;20105;-77
2022/07/02 05:45:06;;;;;;;5.18;3.90;;;23.50;96.70;;;;;;4889638;29;20136;-82
2022/07/02 05:47:34;;;;;;;6.85;4.07;;;23.40;96.70;;;;;;4869957;29;20587;-80
2022/07/02 05:50:03;;;;;;;6.60;4.15;;;23.30;96.70;;;;;;4859076;29;20052;-80
2022/07/02 05:52:31;;;;;;;6.70;4.10;;;23.30;96.70;;;;;;4873205;29;20072;-81
2022/07/02 05:54:59;;;;;;;6.45;3.50;;;23.40;96.70;;;;;;4874662;29;20049;-80
2022/07/02 05:57:27;;;;;;;5.78;3.80;;;23.40;96.70;;;;;;4868774;29;20045;-81
2022/07/02 05:59:58;;;;;;;8.05;4.00;;;23.40;96.70;;;;;;4873262;29;20496;-81
2022/07/02 06:02:26;;;;;;;5.07;3.75;;;23.40;96.70;;;;;;4872264;29;20613;-81
2022/07/02 06:04:54;;;;;;;7.68;4.30;;;23.50;96.70;;;;;;4873219;29;20053;-79
2022/07/02 06:07:40;;;;;;;6.13;4.50;;;23.60;96.70;;;;;;4887721;29;20049;-81
2022/07/02 06:10:09;;;;;;;4.27;2.90;;;23.60;96.70;;;;;;4871669;29;20053;-81
2022/07/02 06:12:37;;;;;;;6.00;3.97;;;23.60;96.70;;;;;;4872244;29;20345;-82
2022/07/02 06:15:07;;;;;;;8.30;4.28;;;23.80;96.70;;;;;;4859399;29;20053;-81
2022/07/02 06:17:35;;;;;;;8.45;4.10;;;23.90;96.70;;;;;;4883193;29;20207;-81
2022/07/02 06:20:03;;;;;;;6.40;4.32;;;23.90;96.70;;;;;;4873412;29;20061;-82
2022/07/02 06:22:31;;;;;;;9.32;4.22;;;24.10;96.70;;;;;;4873812;29;20052;-80
2022/07/02 06:24:59;;;;;;;7.13;4.05;;;24.20;96.70;;;;;;4873159;29;20049;-80
2022/07/02 06:27:27;;;;;;;7.07;4.05;;;24.20;96.70;;;;;;4886563;29;20051;-81
2022/07/02 06:29:56;;;;;;;6.28;3.95;;;24.20;96.70;;;;;;4873501;29;20516;-80
2022/07/02 06:32:25;;;;;;;7.18;4.25;;;24.20;96.70;;;;;;4872781;29;20064;-81
2022/07/02 06:34:53;;;;;;;8.32;3.97;;;24.30;96.70;;;;;;4888358;29;20108;-81
2022/07/02 06:37:21;;;;;;;5.53;3.95;;;24.30;96.70;;;;;;4871621;29;20097;-82
2022/07/02 06:39:50;;;;;;;7.72;4.55;;;24.30;96.70;;;;;;4872101;29;20405;-80
2022/07/02 06:42:26;;;;;;;6.28;3.90;;;24.50;96.70;;;;;;4874534;29;20073;-85
2022/07/02 06:44:57;;;;;;;6.57;3.70;;;24.50;96.70;;;;;;4875543;29;20059;-85
2022/07/02 06:47:28;;;;;;;7.57;3.63;;;24.50;96.70;;;;;;4891511;29;20045;-82
2022/07/02 06:49:57;;;;;;;4.95;3.83;;;24.40;96.70;;;;;;4869140;29;20053;-80
2022/07/02 06:52:25;;;;;;;4.85;3.40;;;24.30;96.70;;;;;;4874258;29;20045;-81
2022/07/02 06:54:53;;;;;;;5.00;3.00;;;24.40;96.70;;;;;;4872784;29;20053;-80
2022/07/02 06:57:21;;;;;;;6.47;3.42;;;24.60;96.70;;;;;;4868724;29;20053;-80
2022/07/02 06:59:53;;;;;;;5.90;3.28;;;24.60;96.70;;;;;;4867690;29;21744;-81
2022/07/02 07:02:21;;;;;;;6.57;3.60;;;24.60;96.70;;;;;;4871020;29;20583;-79
2022/07/02 07:04:51;;;;;;;8.73;4.05;;;24.70;96.70;;;;;;4883945;29;20080;-80
2022/07/02 07:07:25;;;;;;;5.88;3.38;;;24.80;96.70;;;;;;4871294;29;20068;-80
2022/07/02 07:09:53;;;;;;;8.18;3.47;;;24.90;96.70;;;;;;4872364;29;20072;-79
2022/07/02 07:12:21;;;;;;;5.82;3.60;;;24.90;96.70;;;;;;4869547;29;20045;-81
2022/07/02 07:14:49;;;;;;;5.53;3.35;;;25.00;96.70;;;;;;4873322;29;20045;-83
2022/07/02 07:17:18;;;;;;;5.53;3.50;;;25.10;96.70;;;;;;4859905;29;20049;-83
2022/07/02 07:19:46;;;;;;;4.88;3.47;;;25.20;96.70;;;;;;4867051;29;20104;-84
2022/07/02 07:22:17;;;;;;;4.38;3.40;;;25.30;96.70;;;;;;4872098;29;20074;-85
2022/07/02 07:24:45;;;;;;;8.07;4.22;;;25.40;96.70;;;;;;4875171;29;20053;-85
2022/07/02 07:27:13;;;;;;;3.95;2.85;;;25.50;96.70;;;;;;4875168;29;20132;-85
2022/07/02 07:29:41;;;;;;;5.45;3.00;;;25.50;96.70;;;;;;4875001;29;20583;-84
2022/07/02 07:32:10;;;;;;;5.10;3.03;;;25.60;96.70;;;;;;4886581;29;20049;-84
2022/07/02 07:34:41;;;;;;;4.60;3.33;;;25.70;96.70;;;;;;4863948;29;20076;-86
2022/07/02 07:37:11;;;;;;;3.63;3.17;;;25.70;96.70;;;;;;4875052;29;20053;-85
2022/07/02 07:39:41;;;;;;;7.28;3.25;;;25.70;96.70;;;;;;4873338;29;20048;-81
2022/07/02 07:42:09;;;;;;;6.18;2.72;;;25.80;96.70;;;;;;4871954;29;20044;-80
2022/07/02 07:44:37;;;;;;;3.75;2.38;;;25.90;96.70;;;;;;4870760;29;20207;-80
2022/07/02 07:47:06;;;;;;;6.82;2.70;;;25.90;96.70;;;;;;4886414;29;20045;-81
2022/07/02 07:49:34;;;;;;;4.53;2.08;;;26.00;96.70;;;;;;4872336;29;20057;-80
2022/07/02 07:52:02;;;;;;;6.18;2.50;;;25.90;96.70;;;;;;4886772;29;20242;-80
2022/07/02 07:54:30;;;;;;;2.97;2.05;;;25.90;96.70;;;;;;4856751;29;20052;-81
2022/07/02 07:56:59;;;;;;;4.82;2.45;;;26.00;96.70;;;;;;4874197;29;20049;-79
2022/07/02 07:59:28;;;;;;;4.65;2.40;;;26.20;96.70;;;;;;4876512;29;20049;-85
2022/07/02 08:01:56;;;;;;;4.05;2.55;;;26.20;96.70;;;;;;4871508;29;20082;-85
2022/07/02 08:04:24;;;;;;;5.38;2.53;;;26.30;96.70;;;;;;4872032;29;20102;-83
2022/07/02 08:06:52;;;;;;;4.10;2.38;;;26.40;96.70;;;;;;4873795;29;20596;-84
2022/07/02 08:09:20;;;;;;;5.85;2.50;;;26.50;96.70;;;;;;4886347;29;20076;-84
2022/07/02 08:11:48;;;;;;;4.70;2.40;;;26.60;96.70;;;;;;4872954;29;20141;-83
2022/07/02 08:14:18;;;;;;;3.90;2.15;;;26.70;96.70;;;;;;4871818;29;20535;-86
2022/07/02 08:16:46;;;;;;;3.08;1.92;;;26.70;96.70;;;;;;4876105;29;21777;-84
2022/07/02 08:19:16;;;;;;;7.28;2.33;;;26.60;96.70;;;;;;4889198;29;20135;-84
2022/07/02 08:21:44;;;;;;;6.63;2.40;;;26.60;96.70;;;;;;4873369;29;20041;-85
2022/07/02 08:24:12;;;;;;;6.32;2.83;;;26.60;96.70;;;;;;4875257;29;20045;-85
2022/07/02 08:26:40;;;;;;;3.97;2.20;;;26.70;96.70;;;;;;4872843;29;20080;-85
2022/07/02 08:29:09;;;;;;;4.75;2.05;;;26.80;96.70;;;;;;4867619;29;20064;-85
2022/07/02 08:31:39;;;;;;;5.57;2.33;;;26.80;96.70;;;;;;4882939;29;20060;-85
2022/07/02 08:34:08;;;;;;;2.67;1.90;;;26.80;96.70;;;;;;4874372;29;20083;-85
2022/07/02 08:36:36;;;;;;;5.18;1.90;;;26.90;96.70;;;;;;4873669;29;20049;-85
2022/07/02 08:39:04;;;;;;;4.93;2.00;;;27.00;96.70;;;;;;4873390;29;20147;-84
2022/07/02 08:41:33;;;;;;;2.75;1.83;;;27.00;96.70;;;;;;4872675;29;20041;-84
2022/07/02 08:44:10;;;;;;;4.05;2.10;;;27.10;96.70;;;;;;4872668;29;20131;-84
2022/07/02 08:46:41;;;;;;;4.88;1.90;;;27.20;96.70;;;;;;4869798;29;20057;-84
2022/07/02 08:49:10;;;;;;;6.63;1.77;;;27.20;96.70;;;;;;4871247;29;20129;-84
2022/07/02 08:51:39;;;;;;;2.85;1.50;;;27.30;96.70;;;;;;4870887;29;20076;-83
2022/07/02 08:54:08;;;;;;;3.70;1.75;;;27.30;96.70;;;;;;4874136;29;20049;-85
2022/07/02 08:56:36;;;;;;;2.67;1.42;;;27.40;96.70;;;;;;4874889;29;20065;-85
2022/07/02 08:59:04;;;;;;;1.95;1.67;;;27.40;96.70;;;;;;4889474;29;20078;-85
2022/07/02 09:01:33;;;;;;;3.92;1.92;;;27.50;96.70;;;;;;4874420;29;20109;-85
2022/07/02 09:04:03;;;;;;;4.70;1.90;;;27.60;96.70;;;;;;4872845;29;20159;-84
2022/07/02 09:06:35;;;;;;;3.45;1.80;;;27.80;96.70;;;;;;4870708;29;20531;-84
2022/07/02 09:09:03;;;;;;;5.28;1.90;;;28.00;96.70;;;;;;4872651;29;20045;-84
2022/07/02 09:11:31;;;;;;;2.88;1.55;;;28.00;96.70;;;;;;4873777;29;20041;-84
2022/07/02 09:14:00;;;;;;;4.00;1.92;;;28.10;96.70;;;;;;4876304;29;20064;-83
2022/07/02 09:16:28;;;;;;;2.22;1.60;;;28.10;96.70;;;;;;4871136;29;20504;-83
2022/07/02 09:18:56;;;;;;;4.60;1.90;;;28.20;96.70;;;;;;4872953;29;20457;-83
2022/07/02 09:21:25;;;;;;;4.93;2.13;;;28.30;96.70;;;;;;4872594;29;20186;-85
2022/07/02 09:23:53;;;;;;;4.13;2.03;;;28.40;96.70;;;;;;4889073;29;20052;-86
2022/07/02 09:26:23;;;;;;;4.95;1.98;;;28.50;96.70;;;;;;4888002;29;20077;-85
2022/07/02 09:28:54;;;;;;;4.43;1.95;;;28.70;96.70;;;;;;4874052;29;20053;-84
2022/07/02 09:31:32;;;;;;;3.50;1.75;;;28.80;96.70;;;;;;4878963;29;20104;-85
2022/07/02 09:34:00;;;;;;;4.03;2.00;;;28.90;96.70;;;;;;4872393;29;20531;-85
2022/07/02 09:36:36;;;;;;;4.18;1.83;;;28.90;96.70;;;;;;4873389;29;20044;-85
2022/07/02 09:39:04;;;;;;;4.35;2.25;;;29.10;96.70;;;;;;4873836;29;20053;-83
2022/07/02 09:41:42;;;;;;;3.33;1.38;;;29.00;96.70;;;;;;4873472;29;20041;-84
2022/07/02 09:44:11;;;;;;;2.65;1.30;;;29.10;96.70;;;;;;4871456;29;20049;-84
2022/07/02 09:46:43;;;;;;;3.80;1.80;;;29.10;96.70;;;;;;4873731;29;20049;-84
2022/07/02 09:49:12;;;;;;;1.92;1.40;;;29.30;96.70;;;;;;4875387;29;20045;-84
2022/07/02 09:51:50;;;;;;;4.00;1.85;;;29.40;96.70;;;;;;4877353;29;20049;-84
2022/07/02 09:54:19;;;;;;;2.97;1.58;;;29.50;96.70;;;;;;4872829;29;20072;-84
2022/07/02 09:56:54;;;;;;;2.88;1.48;;;29.50;96.70;;;;;;4871383;29;20046;-84
2022/07/02 09:59:27;;;;;;;3.72;1.60;;;29.50;96.70;;;;;;4857597;29;20080;-84
2022/07/02 10:02:02;;;;;;;2.30;1.40;;;29.70;96.70;;;;;;4872565;29;20049;-84
2022/07/02 10:04:30;;;;;;;3.10;1.83;;;29.70;96.70;;;;;;4873235;29;20049;-84
2022/07/02 10:07:00;;;;;;;6.13;2.05;;;29.80;96.70;;;;;;4871365;29;20065;-84
2022/07/02 10:09:28;;;;;;;5.55;1.95;;;29.90;96.70;;;;;;4871643;29;20061;-83
2022/07/02 10:11:57;;;;;;;4.10;1.92;;;30.00;96.70;;;;;;4855921;29;20076;-85
2022/07/02 10:14:28;;;;;;;5.00;1.80;;;30.10;96.70;;;;;;4878444;29;20404;-83
2022/07/02 10:16:58;;;;;;;2.38;1.42;;;30.10;96.70;;;;;;4872948;29;20527;-83
2022/07/02 10:19:27;;;;;;;4.30;1.70;;;30.20;96.70;;;;;;4868339;29;20440;-84
2022/07/02 10:21:57;;;;;;;5.18;2.08;;;30.30;96.70;;;;;;4863201;29;20057;-85
2022/07/02 10:24:28;;;;;;;2.80;1.58;;;30.40;96.70;;;;;;4860454;29;20072;-84
2022/07/02 10:27:00;;;;;;;1.98;1.40;;;30.40;96.70;;;;;;4876408;29;20104;-84
2022/07/02 10:29:29;;;;;;;4.40;1.48;;;30.60;96.70;;;;;;4875931;29;20059;-85
2022/07/02 10:32:06;;;;;;;3.33;1.70;;;30.70;96.70;;;;;;4889380;29;20097;-84
2022/07/02 10:34:47;;;;;;;4.55;1.60;;;30.90;96.70;;;;;;4875830;29;20059;-84
2022/07/02 10:37:15;;;;;;;5.75;1.55;;;31.10;96.70;;;;;;4865760;29;20053;-82
2022/07/02 10:39:45;;;;;;;1.95;1.50;;;31.20;96.70;;;;;;4873464;29;20133;-84
2022/07/02 10:42:13;;;;;;;3.20;1.83;;;31.20;96.70;;;;;;4875849;29;20068;-84
2022/07/02 10:44:42;;;;;;;5.38;1.65;;;31.30;96.70;;;;;;4876759;29;20051;-84
2022/07/02 10:47:18;;;;;;;8.13;1.88;;;31.60;96.70;;;;;;4874969;29;20567;-83
2022/07/02 10:49:57;;;;;;;5.13;1.73;;;31.70;96.70;;;;;;4875424;29;20056;-83
2022/07/02 10:52:47;;;;;;;3.92;1.40;;;31.80;96.70;;;;;;4875709;29;20080;-83
2022/07/02 10:55:27;;;;;;;5.13;1.65;;;31.90;96.70;;;;;;4875279;29;20057;-83
2022/07/02 10:57:58;;;;;;;5.53;1.40;;;32.00;96.70;;;;;;4876456;29;20048;-84
2022/07/02 11:00:28;;;;;;;2.60;1.52;;;32.30;96.70;;;;;;4875384;29;20071;-83
2022/07/02 11:02:57;;;;;;;4.38;1.85;;;32.40;96.70;;;;;;4875632;29;20125;-83
2022/07/02 11:05:26;;;;;;;5.95;2.13;;;32.40;96.70;;;;;;4874561;29;20048;-84
2022/07/02 11:07:54;;;;;;;4.80;2.25;;;32.40;96.70;;;;;;4875210;29;20056;-83
2022/07/02 11:10:29;;;;;;;4.28;1.45;;;32.60;96.70;;;;;;4875220;29;20081;-84
2022/07/02 11:13:01;;;;;;;3.03;1.70;;;32.70;96.70;;;;;;4892029;29;20057;-84
2022/07/02 11:15:35;;;;;;;3.45;1.60;;;32.80;96.00;;;;;;4871796;29;20057;-82
2022/07/02 11:18:06;;;;;;;4.72;1.73;;;32.90;96.10;;;;;;4870354;29;20088;-82
2022/07/02 11:20:35;;;;;;;3.13;1.83;;;32.90;95.80;;;;;;4874912;29;20049;-82
2022/07/02 11:23:04;;;;;;;3.83;2.00;;;32.90;95.60;;;;;;4861605;29;20091;-82
2022/07/02 11:25:33;;;;;;;3.50;1.80;;;33.10;95.20;;;;;;4873630;29;20041;-82
2022/07/02 11:28:03;;;;;;;4.55;1.70;;;33.20;94.90;;;;;;4875744;29;20055;-81
2022/07/02 11:30:33;;;;;;;4.13;1.45;;;33.40;94.40;;;;;;4886674;29;20122;-82
2022/07/02 11:33:11;;;;;;;4.53;1.75;;;33.40;94.80;;;;;;4875023;29;20037;-82
2022/07/02 11:35:42;;;;;;;5.32;1.73;;;33.50;94.00;;;;;;4871482;29;20049;-81
2022/07/02 11:38:10;;;;;;;4.72;1.67;;;33.60;93.90;;;;;;4860103;29;20057;-82
2022/07/02 11:40:39;;;;;;;5.00;1.70;;;33.70;93.30;;;;;;4874038;29;20082;-82
2022/07/02 11:43:13;;;;;;;4.00;1.65;;;33.80;93.20;;;;;;4875115;29;20125;-82
2022/07/02 11:45:43;;;;;;;3.50;1.55;;;33.60;92.60;;;;;;4875638;29;20072;-82
2022/07/02 11:48:18;;;;;;;4.35;2.10;;;33.50;93.60;;;;;;4860056;29;20056;-81
2022/07/02 11:50:54;;;;;;;;;;;33.40;92.70;;;;;;4892271;29;20108;-82
2022/07/02 11:53:23;;;;;;;3.83;1.67;;;33.50;93.20;;;;;;4876487;29;19989;-82
2022/07/02 11:56:03;;;;;;;6.53;1.95;;;33.80;92.10;;;;;;4875240;29;20065;-82
2022/07/02 11:58:38;;;;;;;3.97;1.77;;;33.80;90.40;;;;;;4865455;29;20049;-82
2022/07/02 12:01:17;;;;;;;2.78;1.52;;;33.80;90.70;;;;;;4879979;29;20073;-82
2022/07/02 12:03:45;;;;;;;4.18;1.80;;;34.00;91.10;;;;;;4874034;29;20057;-82
2022/07/02 12:06:13;;;;;;;4.15;1.63;;;34.20;90.10;;;;;;4873976;29;20056;-82
2022/07/02 12:08:42;;;;;;;7.95;1.58;;;34.20;89.40;;;;;;4888203;29;20519;-82
2022/07/02 12:11:14;;;;;;;3.60;1.83;;;34.20;90.00;;;;;;4872630;29;20095;-82
2022/07/02 12:13:43;;;;;;;4.80;1.83;;;34.10;89.20;;;;;;4873088;29;20056;-80
2022/07/02 12:16:13;;;;;;;3.15;1.40;;;34.10;89.60;;;;;;4871936;29;20083;-81
2022/07/02 12:18:41;;;;;;;4.22;1.55;;;34.20;88.80;;;;;;4871589;29;20057;-80
2022/07/02 12:21:11;;;;;;;4.65;2.15;;;34.20;87.40;;;;;;4873249;29;20041;-81
2022/07/02 12:23:46;;;;;;;3.85;1.63;;;34.40;88.00;;;;;;4894667;29;20056;-81
2022/07/02 12:26:23;;;;;;;4.90;1.77;;;34.60;89.00;;;;;;4872314;29;20057;-82
2022/07/02 12:31:48;;;;;;;4.22;1.73;;;34.90;87.10;;;;;;4884833;29;20117;-80
2022/07/02 12:34:18;;;;;;;4.72;1.60;;;35.00;86.20;;;;;;4878474;29;20057;-81
2022/07/02 12:36:54;;;;;;;4.13;1.60;;;35.10;86.00;;;;;;4853311;29;20090;-81
2022/07/02 12:39:24;;;;;;;3.85;1.60;;;35.20;85.50;;;;;;4874325;29;20080;-81
2022/07/02 12:41:53;;;;;;;2.55;1.50;;;35.30;84.40;;;;;;4865685;29;20041;-81
2022/07/02 12:44:22;;;;;;;4.72;1.88;;;35.40;83.80;;;;;;4883268;29;20732;-81
2022/07/02 12:46:53;;;;;;;6.90;2.03;;;35.50;84.60;;;;;;4870074;29;20515;-80
2022/07/02 12:49:23;;;;;;;4.10;1.63;;;35.60;84.40;;;;;;4871090;29;20049;-80
2022/07/02 12:51:53;;;;;;;3.22;1.63;;;35.70;85.50;;;;;;4854668;29;20068;-80
2022/07/02 12:54:32;;;;;;;3.83;1.48;;;35.70;84.70;;;;;;4871196;29;20052;-80
2022/07/02 12:57:15;;;;;;;2.45;1.60;;;35.80;84.00;;;;;;4869888;29;20414;-80
2022/07/02 12:59:44;;;;;;;5.07;1.98;;;36.00;83.80;;;;;;4869776;29;20069;-80
2022/07/02 13:02:18;;;;;;;2.70;1.15;;;36.00;83.60;;;;;;4882056;29;20065;-78